Aviation Digital Data Service (ADDS)

Output produced by METARs form (0812 UTC 01 November 2014)
found at http://www.aviationweather.gov/adds/metars/
 
KILG 010751Z 02013KT 10SM OVC014 11/07 A2977 RMK AO2 SLP080 T01060072
KILG 010520Z 0106/0206 01006KT P6SM OVC015 
     TEMPO 0108/0111 4SM -RA BR OVC009 
     FM011100 01010G20KT 5SM -RA OVC015 
     FM011400 01014G24KT 5SM -RA OVC025 
     FM012100 36016G26KT 6SM -SHRA OVC035 
     FM020000 34018G28KT P6SM OVC040